createdAt,value
2018-02-10T00:00:21.217Z,-0.97
2018-02-10T00:01:31.206Z,-0.97
2018-02-10T00:02:41.185Z,-0.99
2018-02-10T00:03:50.912Z,-0.97
2018-02-10T00:05:00.636Z,-0.96
2018-02-10T00:06:10.083Z,-0.99
2018-02-10T00:07:19.799Z,-1
2018-02-10T00:08:29.783Z,-0.97
2018-02-10T00:09:39.769Z,-1
2018-02-10T00:10:49.746Z,-0.96
2018-02-10T00:11:59.720Z,-1.04
2018-02-10T00:13:09.490Z,-1.01
2018-02-10T00:14:19.471Z,-0.97
2018-02-10T00:15:29.186Z,-1.06
2018-02-10T00:16:38.644Z,-1.04
2018-02-10T00:17:48.103Z,-1.11
2018-02-10T00:18:58.111Z,-1.09
2018-02-10T00:20:07.303Z,-1.15
2018-02-10T00:21:17.278Z,-1.06
2018-02-10T00:22:27.261Z,-1.04
2018-02-10T00:23:37.242Z,-1.04
2018-02-10T00:24:46.957Z,-1.12
2018-02-10T00:25:57.000Z,-1.12
2018-02-10T00:27:06.984Z,-1.15
2018-02-10T00:28:16.698Z,-1.14
2018-02-10T00:29:26.419Z,-1.06
2018-02-10T00:30:36.500Z,-1.12
2018-02-10T00:31:46.247Z,-1.07
2018-02-10T00:32:56.269Z,-1
2018-02-10T00:34:05.985Z,-1.18
2018-02-10T00:35:15.961Z,-1.09
2018-02-10T00:36:25.677Z,-1.09
2018-02-10T00:37:35.658Z,-1.07
2018-02-10T00:38:45.644Z,-1.06
2018-02-10T00:39:55.620Z,-1.01
2018-02-10T00:41:05.599Z,-1.07
2018-02-10T00:42:15.584Z,-1.15
2018-02-10T00:43:25.565Z,-1.07
2018-02-10T00:44:35.541Z,-1.09
2018-02-10T00:45:45.520Z,-1.06
2018-02-10T00:46:55.506Z,-1.15
2018-02-10T00:48:05.487Z,-1.11
2018-02-10T00:49:15.476Z,-1.12
2018-02-10T00:50:25.457Z,-1.19
2018-02-10T00:51:35.182Z,-1.18
2018-02-10T00:52:45.160Z,-1.15
2018-02-10T00:53:54.935Z,-1.12
2018-02-10T00:55:04.651Z,-1.27
2018-02-10T00:56:14.374Z,-1.21
2018-02-10T00:57:24.144Z,-1.18
2018-02-10T00:58:34.139Z,-1.24
2018-02-10T00:59:43.859Z,-1.18
2018-02-10T01:00:53.837Z,-1.27
2018-02-10T01:02:03.809Z,-1.25
2018-02-10T01:03:13.796Z,-1.29
2018-02-10T01:04:23.509Z,-1.29
2018-02-10T01:05:33.496Z,-1.33
2018-02-10T01:06:43.481Z,-1.27
2018-02-10T01:07:52.660Z,-1.21
2018-02-10T01:09:02.638Z,-1.22
2018-02-10T01:10:12.353Z,-1.27
2018-02-10T01:11:22.076Z,-1.24
2018-02-10T01:12:31.791Z,-1.17
2018-02-10T01:13:41.771Z,-1.22
2018-02-10T01:14:51.747Z,-1.18
2018-02-10T01:16:01.770Z,-1.19
2018-02-10T01:17:11.488Z,-1.19
2018-02-10T01:18:21.199Z,-1.21
2018-02-10T01:19:30.912Z,-1.21
2018-02-10T01:20:40.933Z,-1.32
2018-02-10T01:21:50.919Z,-1.29
2018-02-10T01:23:00.907Z,-1.27
2018-02-10T01:24:10.092Z,-1.29
2018-02-10T01:25:19.811Z,-1.27
2018-02-10T01:26:29.528Z,-1.29
2018-02-10T01:27:39.242Z,-1.35
2018-02-10T01:28:49.228Z,-1.38
2018-02-10T01:29:58.940Z,-1.4
2018-02-10T01:31:08.922Z,-1.3
2018-02-10T01:32:18.642Z,-1.3
2018-02-10T01:33:28.627Z,-1.33
2018-02-10T01:34:38.122Z,-1.42
2018-02-10T01:35:48.098Z,-1.43
2018-02-10T01:36:58.084Z,-1.35
2018-02-10T01:38:07.805Z,-1.35
2018-02-10T01:39:17.783Z,-1.35
2018-02-10T01:40:27.768Z,-1.4
2018-02-10T01:41:37.478Z,-1.42
2018-02-10T01:42:47.455Z,-1.45
2018-02-10T01:43:57.169Z,-1.4
2018-02-10T01:45:07.149Z,-1.5
2018-02-10T01:46:17.136Z,-1.42
2018-02-10T01:47:27.115Z,-1.48
2018-02-10T01:48:36.828Z,-1.53
2018-02-10T01:49:46.544Z,-1.51
2018-02-10T01:50:56.524Z,-1.54
2018-02-10T01:52:05.975Z,-1.53
2018-02-10T01:53:15.958Z,-1.48
2018-02-10T01:54:25.938Z,-1.5
2018-02-10T01:55:35.653Z,-1.53
2018-02-10T01:56:45.372Z,-1.53
2018-02-10T01:57:55.400Z,-1.56
2018-02-10T01:59:05.116Z,-1.56
2018-02-10T02:00:14.836Z,-1.5
2018-02-10T02:01:24.820Z,-1.5
2018-02-10T02:02:34.576Z,-1.48
2018-02-10T02:03:44.289Z,-1.46
2018-02-10T02:04:54.003Z,-1.45
2018-02-10T02:06:03.718Z,-1.45
2018-02-10T02:07:13.694Z,-1.42
2018-02-10T02:08:23.410Z,-1.5
2018-02-10T02:09:33.390Z,-1.43
2018-02-10T02:10:43.372Z,-1.43
2018-02-10T02:11:53.360Z,-1.54
2018-02-10T02:13:03.413Z,-1.46
2018-02-10T02:14:12.863Z,-1.48
2018-02-10T02:15:22.846Z,-1.46
2018-02-10T02:16:32.831Z,-1.45
2018-02-10T02:17:42.578Z,-1.43
2018-02-10T02:18:52.555Z,-1.51
2018-02-10T02:20:02.532Z,-1.46
2018-02-10T02:21:12.574Z,-1.42
2018-02-10T02:22:22.609Z,-1.5
2018-02-10T02:23:32.329Z,-1.43
2018-02-10T02:24:42.306Z,-1.43
2018-02-10T02:25:52.023Z,-1.54
2018-02-10T02:27:02.003Z,-1.48
2018-02-10T02:28:11.981Z,-1.53
2018-02-10T02:29:21.958Z,-1.53
2018-02-10T02:30:31.680Z,-1.53
2018-02-10T02:31:41.398Z,-1.43
2018-02-10T02:32:51.121Z,-1.45
2018-02-10T02:34:00.839Z,-1.53
2018-02-10T02:35:10.556Z,-1.45
2018-02-10T02:36:20.280Z,-1.46
2018-02-10T02:37:30.009Z,-1.43
2018-02-10T02:38:40.001Z,-1.46
2018-02-10T02:39:49.993Z,-1.45
2018-02-10T02:40:59.970Z,-1.4
2018-02-10T02:42:09.955Z,-1.42
2018-02-10T02:43:19.676Z,-1.42
2018-02-10T02:44:29.228Z,-1.42
2018-02-10T02:45:38.956Z,-1.42
2018-02-10T02:46:48.940Z,-1.4
2018-02-10T02:47:58.653Z,-1.39
2018-02-10T02:49:08.640Z,-1.43
2018-02-10T02:50:18.620Z,-1.42
2018-02-10T02:51:28.597Z,-1.43
2018-02-10T02:52:38.316Z,-1.4
2018-02-10T02:53:48.301Z,-1.4
2018-02-10T02:54:58.021Z,-1.43
2018-02-10T02:56:07.751Z,-1.38
2018-02-10T02:57:17.475Z,-1.45
2018-02-10T02:58:27.460Z,-1.45
2018-02-10T02:59:36.912Z,-1.39
2018-02-10T03:00:46.900Z,-1.45
2018-02-10T03:01:56.929Z,-1.45
2018-02-10T03:03:06.924Z,-1.51
2018-02-10T03:04:16.644Z,-1.48
2018-02-10T03:05:26.361Z,-1.38
2018-02-10T03:06:36.073Z,-1.42
2018-02-10T03:07:45.526Z,-1.39
2018-02-10T03:08:55.598Z,-1.38
2018-02-10T03:10:05.046Z,-1.45
2018-02-10T03:11:14.761Z,-1.5
2018-02-10T03:12:24.743Z,-1.33
2018-02-10T03:13:34.467Z,-1.36
2018-02-10T03:14:44.184Z,-1.39
2018-02-10T03:15:53.899Z,-1.32
2018-02-10T03:17:03.878Z,-1.33
2018-02-10T03:18:13.600Z,-1.38
2018-02-10T03:19:23.678Z,-1.27
2018-02-10T03:20:33.664Z,-1.3
2018-02-10T03:21:43.649Z,-1.38
2018-02-10T03:22:53.361Z,-1.27
2018-02-10T03:24:03.342Z,-1.32
2018-02-10T03:25:12.793Z,-1.29
2018-02-10T03:26:22.513Z,-1.32
2018-02-10T03:27:32.234Z,-1.35
2018-02-10T03:28:41.970Z,-1.22
2018-02-10T03:29:51.703Z,-1.18
2018-02-10T03:31:01.684Z,-1.29
2018-02-10T03:32:11.412Z,-1.21
2018-02-10T03:33:21.395Z,-1.3
2018-02-10T03:34:31.382Z,-1.27
2018-02-10T03:35:41.442Z,-1.32
2018-02-10T03:36:51.298Z,-1.3
2018-02-10T03:38:00.763Z,-1.27
2018-02-10T03:39:10.478Z,-1.27
2018-02-10T03:40:20.544Z,-1.27
2018-02-10T03:41:30.264Z,-1.25
2018-02-10T03:42:39.715Z,-1.29
2018-02-10T03:43:49.162Z,-1.3
2018-02-10T03:44:59.138Z,-1.33
2018-02-10T03:46:09.122Z,-1.32
2018-02-10T03:47:18.840Z,-1.43
2018-02-10T03:48:28.288Z,-1.29
2018-02-10T03:49:38.265Z,-1.36
2018-02-10T03:50:47.718Z,-1.32
2018-02-10T03:51:57.173Z,-1.25
2018-02-10T03:53:06.882Z,-1.33
2018-02-10T03:54:16.642Z,-1.24
2018-02-10T03:55:26.112Z,-1.3
2018-02-10T03:56:35.831Z,-1.27
2018-02-10T03:57:45.820Z,-1.39
2018-02-10T03:58:55.809Z,-1.29
2018-02-10T04:00:05.804Z,-1.3
2018-02-10T04:04:16.113Z,-1.4
2018-02-10T04:05:26.092Z,-1.32
2018-02-10T04:06:36.070Z,-1.33
2018-02-10T04:07:46.049Z,-1.3
2018-02-10T04:08:56.077Z,-1.39
2018-02-10T04:10:05.795Z,-1.4
2018-02-10T04:11:15.821Z,-1.38
2018-02-10T04:12:25.539Z,-1.4
2018-02-10T04:13:35.518Z,-1.38
2018-02-10T04:14:45.494Z,-1.43
2018-02-10T04:15:55.469Z,-1.39
2018-02-10T04:17:05.189Z,-1.4
2018-02-10T04:18:15.168Z,-1.43
2018-02-10T04:19:25.148Z,-1.46
2018-02-10T04:20:34.866Z,-1.48
2018-02-10T04:21:44.842Z,-1.48
2018-02-10T04:22:54.294Z,-1.43
2018-02-10T04:24:04.010Z,-1.51
2018-02-10T04:25:13.986Z,-1.43
2018-02-10T04:26:23.969Z,-1.48
2018-02-10T04:27:33.683Z,-1.56
2018-02-10T04:28:43.666Z,-1.45
2018-02-10T04:29:53.644Z,-1.48
2018-02-10T04:31:03.357Z,-1.54
2018-02-10T04:32:13.346Z,-1.51
2018-02-10T04:33:23.072Z,-1.56
2018-02-10T04:34:32.529Z,-1.57
2018-02-10T04:35:42.507Z,-1.57
2018-02-10T04:36:52.487Z,-1.51
2018-02-10T04:38:01.933Z,-1.46
2018-02-10T04:39:11.647Z,-1.56
2018-02-10T04:40:21.361Z,-1.54
2018-02-10T04:41:30.811Z,-1.57
2018-02-10T04:42:40.788Z,-1.51
2018-02-10T04:43:50.242Z,-1.56
2018-02-10T04:44:59.955Z,-1.57
2018-02-10T04:46:09.672Z,-1.57
2018-02-10T04:47:19.657Z,-1.56
2018-02-10T04:48:29.377Z,-1.64
2018-02-10T04:49:39.355Z,-1.57
2018-02-10T04:50:49.078Z,-1.61
2018-02-10T04:51:58.848Z,-1.58
2018-02-10T04:53:08.835Z,-1.56
2018-02-10T04:54:18.554Z,-1.61
2018-02-10T04:55:28.273Z,-1.64
2018-02-10T04:56:37.724Z,-1.61
2018-02-10T04:57:47.492Z,-1.68
2018-02-10T04:58:57.469Z,-1.61
2018-02-10T05:00:07.188Z,-1.6
2018-02-10T05:01:16.907Z,-1.64
2018-02-10T05:02:26.951Z,-1.68
2018-02-10T05:03:36.671Z,-1.57
2018-02-10T05:04:46.127Z,-1.6
2018-02-10T05:05:56.106Z,-1.64
2018-02-10T05:07:05.826Z,-1.6
2018-02-10T05:08:15.546Z,-1.64
2018-02-10T05:09:25.263Z,-1.58
2018-02-10T05:10:35.245Z,-1.58
2018-02-10T05:11:44.695Z,-1.6
2018-02-10T05:12:54.675Z,-1.71
2018-02-10T05:14:04.395Z,-1.66
2018-02-10T05:15:14.376Z,-1.64
2018-02-10T05:16:24.092Z,-1.64
2018-02-10T05:17:34.083Z,-1.6
2018-02-10T05:18:44.071Z,-1.63
2018-02-10T05:19:54.047Z,-1.63
2018-02-10T05:21:03.826Z,-1.69
2018-02-10T05:22:13.808Z,-1.68
2018-02-10T05:23:23.518Z,-1.58
2018-02-10T05:24:33.497Z,-1.68
2018-02-10T05:25:43.209Z,-1.68
2018-02-10T05:26:53.184Z,-1.69
2018-02-10T05:28:02.901Z,-1.61
2018-02-10T05:29:12.618Z,-1.61
2018-02-10T05:30:22.597Z,-1.64
2018-02-10T05:31:32.576Z,-1.63
2018-02-10T05:32:42.553Z,-1.61
2018-02-10T05:33:52.549Z,-1.68
2018-02-10T05:35:02.536Z,-1.72
2018-02-10T05:36:12.512Z,-1.68
2018-02-10T05:37:22.503Z,-1.64
2018-02-10T05:38:32.318Z,-1.63
2018-02-10T05:39:42.301Z,-1.66
2018-02-10T05:40:52.282Z,-1.69
2018-02-10T05:42:01.997Z,-1.74
2018-02-10T05:43:11.983Z,-1.66
2018-02-10T05:44:21.746Z,-1.64
2018-02-10T05:45:31.796Z,-1.6
2018-02-10T05:46:41.508Z,-1.68
2018-02-10T05:47:51.221Z,-1.71
2018-02-10T05:49:00.930Z,-1.74
2018-02-10T05:50:10.648Z,-1.69
2018-02-10T05:51:20.097Z,-1.68
2018-02-10T05:52:30.072Z,-1.71
2018-02-10T05:53:40.046Z,-1.74
2018-02-10T05:54:50.022Z,-1.71
2018-02-10T05:55:59.748Z,-1.71
2018-02-10T05:57:09.725Z,-1.69
2018-02-10T05:58:19.702Z,-1.72
2018-02-10T05:59:29.684Z,-1.79
2018-02-10T06:00:39.669Z,-1.81
2018-02-10T06:01:49.499Z,-1.74
2018-02-10T06:02:59.473Z,-1.82
2018-02-10T06:04:09.200Z,-1.78
2018-02-10T06:05:19.194Z,-1.75
2018-02-10T06:06:28.958Z,-1.76
2018-02-10T06:07:39.040Z,-1.78
2018-02-10T06:08:49.018Z,-1.79
2018-02-10T06:09:59.003Z,-1.78
2018-02-10T06:11:08.984Z,-1.78
2018-02-10T06:12:18.964Z,-1.75
2018-02-10T06:13:28.415Z,-1.84
2018-02-10T06:14:38.395Z,-1.79
2018-02-10T06:15:47.845Z,-1.76
2018-02-10T06:16:57.556Z,-1.71
2018-02-10T06:18:07.549Z,-1.71
2018-02-10T06:19:17.266Z,-1.63
2018-02-10T06:20:27.247Z,-1.66
2018-02-10T06:21:37.226Z,-1.72
2018-02-10T06:22:47.199Z,-1.54
2018-02-10T06:23:56.657Z,-1.66
2018-02-10T06:25:06.642Z,-1.63
2018-02-10T06:26:16.625Z,-1.66
2018-02-10T06:27:26.600Z,-1.64
2018-02-10T06:28:36.316Z,-1.66
2018-02-10T06:29:46.030Z,-1.72
2018-02-10T06:30:56.010Z,-1.69
2018-02-10T06:32:05.467Z,-1.71
2018-02-10T06:33:14.924Z,-1.76
2018-02-10T06:34:24.916Z,-1.71
2018-02-10T06:35:34.640Z,-1.68
2018-02-10T06:36:44.616Z,-1.72
2018-02-10T06:37:54.590Z,-1.71
2018-02-10T06:39:04.571Z,-1.72
2018-02-10T06:40:14.549Z,-1.71
2018-02-10T06:41:24.524Z,-1.68
2018-02-10T06:42:33.977Z,-1.76
2018-02-10T06:43:43.699Z,-1.72
2018-02-10T06:44:53.703Z,-1.71
2018-02-10T06:46:03.732Z,-1.72
2018-02-10T06:47:13.477Z,-1.79
2018-02-10T06:48:23.457Z,-1.74
2018-02-10T06:49:33.434Z,-1.74
2018-02-10T06:50:42.884Z,-1.81
2018-02-10T06:51:52.862Z,-1.76
2018-02-10T06:53:02.576Z,-1.75
2018-02-10T06:54:12.291Z,-1.75
2018-02-10T06:55:22.004Z,-1.75
2018-02-10T06:56:31.986Z,-1.9
2018-02-10T06:57:41.964Z,-1.82
2018-02-10T06:58:51.940Z,-1.86
2018-02-10T07:00:01.705Z,-1.92
2018-02-10T07:01:11.685Z,-2
2018-02-10T07:02:21.662Z,-2.05
2018-02-10T07:03:31.653Z,-2.15
2018-02-10T07:04:41.364Z,-2.14
2018-02-10T07:05:51.078Z,-2.2
2018-02-10T07:07:01.066Z,-2.17
2018-02-10T07:08:10.247Z,-2.22
2018-02-10T07:09:19.710Z,-2.25
2018-02-10T07:10:29.164Z,-2.29
2018-02-10T07:11:39.144Z,-2.28
2018-02-10T07:12:48.889Z,-2.36
2018-02-10T07:13:58.904Z,-2.34
2018-02-10T07:15:08.621Z,-2.36
2018-02-10T07:16:18.071Z,-2.28
2018-02-10T07:17:27.828Z,-2.34
2018-02-10T07:18:37.805Z,-2.34
2018-02-10T07:19:47.784Z,-2.34
2018-02-10T07:20:57.767Z,-2.33
2018-02-10T07:22:07.480Z,-2.33
2018-02-10T07:23:17.250Z,-2.28
2018-02-10T07:24:27.238Z,-2.23
2018-02-10T07:25:36.691Z,-2.32
2018-02-10T07:26:46.668Z,-2.26
2018-02-10T07:27:56.392Z,-2.26
2018-02-10T07:29:05.580Z,-2.29
2018-02-10T07:30:15.558Z,-2.36
2018-02-10T07:31:25.272Z,-2.26
2018-02-10T07:32:34.782Z,-2.33
2018-02-10T07:33:44.771Z,-2.37
2018-02-10T07:34:54.756Z,-2.32
2018-02-10T07:36:04.201Z,-2.37
2018-02-10T07:37:13.388Z,-2.34
2018-02-10T07:38:23.365Z,-2.28
2018-02-10T07:39:32.549Z,-2.26
2018-02-10T07:40:42.528Z,-2.23
2018-02-10T07:41:52.509Z,-2.28
2018-02-10T07:43:02.491Z,-2.15
2018-02-10T07:44:12.465Z,-2.15
2018-02-10T07:45:22.178Z,-2.25
2018-02-10T07:46:31.627Z,-2.17
2018-02-10T07:47:41.344Z,-2.2
2018-02-10T07:48:50.793Z,-2.25
2018-02-10T07:50:00.504Z,-2.2
2018-02-10T07:51:10.219Z,-2.15
2018-02-10T07:52:19.933Z,-2.17
2018-02-10T07:53:29.380Z,-2.08
2018-02-10T07:54:38.828Z,-2.13
2018-02-10T07:55:48.544Z,-2.08
2018-02-10T07:56:58.581Z,-2.04
2018-02-10T07:58:08.570Z,-2.08
2018-02-10T07:59:18.368Z,-2.15
2018-02-10T08:00:28.084Z,-2.04
2018-02-10T08:01:37.532Z,-2.04
2018-02-10T08:02:47.512Z,-2
2018-02-10T08:03:57.540Z,-1.97
2018-02-10T08:05:07.515Z,-2
2018-02-10T08:06:17.499Z,-2.08
2018-02-10T08:07:27.476Z,-2.05
2018-02-10T08:08:37.455Z,-1.94
2018-02-10T08:09:47.186Z,-1.93
2018-02-10T08:10:57.209Z,-1.93
2018-02-10T08:12:06.129Z,-1.89
2018-02-10T08:13:15.846Z,-1.97
2018-02-10T08:14:25.824Z,-1.99
2018-02-10T08:15:35.803Z,-1.93
2018-02-10T08:16:44.989Z,-1.97
2018-02-10T08:17:54.703Z,-1.94
2018-02-10T08:19:04.416Z,-1.92
2018-02-10T08:20:14.387Z,-1.79
2018-02-10T08:21:24.364Z,-1.87
2018-02-10T08:22:34.417Z,-1.87
2018-02-10T08:23:44.136Z,-1.92
2018-02-10T08:24:54.110Z,-1.89
2018-02-10T08:26:04.115Z,-1.92
2018-02-10T08:27:14.092Z,-1.99
2018-02-10T08:28:23.803Z,-2.02
2018-02-10T08:29:33.514Z,-1.9
2018-02-10T08:30:43.227Z,-1.87
2018-02-10T08:31:53.206Z,-1.9
2018-02-10T08:33:03.029Z,-1.93
2018-02-10T08:34:12.743Z,-1.97
2018-02-10T08:35:22.457Z,-1.92
2018-02-10T08:36:31.904Z,-1.97
2018-02-10T08:37:41.624Z,-1.96
2018-02-10T08:38:51.340Z,-2.02
2018-02-10T08:40:01.316Z,-1.96
2018-02-10T08:41:11.032Z,-1.94
2018-02-10T08:42:20.750Z,-1.96
2018-02-10T08:43:30.463Z,-1.9
2018-02-10T08:44:40.436Z,-1.9
2018-02-10T08:45:50.415Z,-1.87
2018-02-10T08:46:59.864Z,-1.97
2018-02-10T08:48:09.892Z,-1.81
2018-02-10T08:49:19.868Z,-1.84
2018-02-10T08:50:29.318Z,-1.89
2018-02-10T08:51:39.297Z,-1.86
2018-02-10T08:52:49.279Z,-1.82
2018-02-10T08:53:58.993Z,-1.75
2018-02-10T08:55:08.968Z,-1.72
2018-02-10T08:56:18.777Z,-1.68
2018-02-10T08:57:28.754Z,-1.74
2018-02-10T08:58:38.732Z,-1.68
2018-02-10T08:59:48.179Z,-1.66
2018-02-10T09:00:57.885Z,-1.69
2018-02-10T09:02:07.917Z,-1.68
2018-02-10T09:03:17.892Z,-1.71
2018-02-10T09:04:27.343Z,-1.64
2018-02-10T09:05:36.791Z,-1.69
2018-02-10T09:06:46.776Z,-1.66
2018-02-10T09:07:56.489Z,-1.69
2018-02-10T09:09:06.468Z,-1.64
2018-02-10T09:10:16.182Z,-1.6
2018-02-10T09:11:26.175Z,-1.56
2018-02-10T09:12:35.890Z,-1.57
2018-02-10T09:13:45.338Z,-1.63
2018-02-10T09:14:55.058Z,-1.54
2018-02-10T09:16:05.039Z,-1.53
2018-02-10T09:17:15.015Z,-1.5
2018-02-10T09:18:24.728Z,-1.46
2018-02-10T09:19:34.756Z,-1.43
2018-02-10T09:20:44.743Z,-1.46
2018-02-10T09:21:54.728Z,-1.46
2018-02-10T09:23:04.706Z,-1.46
2018-02-10T09:24:14.691Z,-1.43
2018-02-10T09:25:24.454Z,-1.42
2018-02-10T09:26:33.903Z,-1.35
2018-02-10T09:27:43.612Z,-1.33
2018-02-10T09:28:53.325Z,-1.38
2018-02-10T09:30:03.313Z,-1.3
2018-02-10T09:31:12.762Z,-1.29
2018-02-10T09:32:21.945Z,-1.3
2018-02-10T09:33:31.398Z,-1.29
2018-02-10T09:34:41.108Z,-1.36
2018-02-10T09:35:51.091Z,-1.36
2018-02-10T09:37:00.815Z,-1.32
2018-02-10T09:38:10.267Z,-1.22
2018-02-10T09:39:19.717Z,-1.19
2018-02-10T09:40:28.947Z,-1.19
2018-02-10T09:41:38.664Z,-1.21
2018-02-10T09:42:48.377Z,-1.18
2018-02-10T09:43:58.371Z,-1.15
2018-02-10T09:45:07.556Z,-1.14
2018-02-10T09:46:17.592Z,-1.17
2018-02-10T09:47:27.304Z,-1.19
2018-02-10T09:48:37.026Z,-1.12
2018-02-10T09:49:47.006Z,-1.12
2018-02-10T09:50:56.732Z,-1.09
2018-02-10T09:52:06.716Z,-1.09
2018-02-10T09:53:16.470Z,-1.14
2018-02-10T09:54:25.655Z,-1.01
2018-02-10T09:55:35.639Z,-1.15
2018-02-10T09:56:45.626Z,-1.15
2018-02-10T09:57:55.390Z,-1.15
2018-02-10T09:59:05.419Z,-1.12
2018-02-10T10:00:15.401Z,-1.12
2018-02-10T10:01:25.119Z,-1.11
2018-02-10T10:02:35.149Z,-1.14
2018-02-10T10:03:45.135Z,-1.19
2018-02-10T10:04:55.119Z,-1.09
2018-02-10T10:06:04.884Z,-1.12
2018-02-10T10:07:14.869Z,-1.15
2018-02-10T10:08:24.588Z,-1.09
2018-02-10T10:09:34.304Z,-1.07
2018-02-10T10:10:44.287Z,-1.14
2018-02-10T10:11:54.268Z,-1.19
2018-02-10T10:13:03.979Z,-1.12
2018-02-10T10:14:13.967Z,-1.17
2018-02-10T10:15:23.951Z,-1.07
2018-02-10T10:16:33.673Z,-1.11
2018-02-10T10:17:43.394Z,-1.06
2018-02-10T10:18:52.578Z,-1.09
2018-02-10T10:20:02.567Z,-1.04
2018-02-10T10:21:11.801Z,-1.04
2018-02-10T10:22:21.320Z,-1.01
2018-02-10T10:23:31.302Z,-0.97
2018-02-10T10:24:41.297Z,-0.93
2018-02-10T10:25:51.016Z,-1
2018-02-10T10:27:00.734Z,-0.97
2018-02-10T10:28:10.236Z,-0.94
2018-02-10T10:29:19.951Z,-0.89
2018-02-10T10:30:29.667Z,-0.89
2018-02-10T10:31:39.652Z,-0.77
2018-02-10T10:32:49.630Z,-0.7
2018-02-10T10:33:59.605Z,-0.77
2018-02-10T10:35:09.444Z,-0.7
2018-02-10T10:36:19.163Z,-0.59
2018-02-10T10:37:28.882Z,-0.6
2018-02-10T10:38:38.336Z,-0.66
2018-02-10T10:39:48.316Z,-0.48
2018-02-10T10:40:58.032Z,-0.48
2018-02-10T10:42:07.485Z,-0.39
2018-02-10T10:43:17.204Z,-0.48
2018-02-10T10:44:26.933Z,-0.48
2018-02-10T10:45:36.650Z,-0.42
2018-02-10T10:46:46.108Z,-0.35
2018-02-10T10:47:55.828Z,-0.24
2018-02-10T10:49:05.812Z,-0.15
2018-02-10T10:50:15.531Z,-0.13
2018-02-10T10:51:25.525Z,-0.02
2018-02-10T10:52:35.497Z,-0.03
2018-02-10T10:53:44.947Z,0.08
2018-02-10T10:54:54.930Z,0.19
2018-02-10T10:56:04.646Z,0.18
2018-02-10T10:57:14.366Z,0.24
2018-02-10T10:58:24.355Z,0.06
2018-02-10T10:59:34.339Z,0.09
2018-02-10T11:00:44.053Z,0.06
2018-02-10T11:01:53.772Z,0.16
2018-02-10T11:03:03.816Z,0.23
2018-02-10T11:04:13.805Z,0.3
2018-02-10T11:05:23.568Z,0.27
2018-02-10T11:06:33.556Z,0.3
2018-02-10T11:07:43.539Z,0.3
2018-02-10T11:08:53.521Z,0.31
2018-02-10T11:10:03.551Z,0.24
2018-02-10T11:11:13.530Z,0.29
2018-02-10T11:12:22.982Z,0.24
2018-02-10T11:13:32.167Z,0.24
2018-02-10T11:14:41.928Z,0.33
2018-02-10T11:15:51.692Z,0.33
2018-02-10T11:17:01.680Z,0.37
2018-02-10T11:18:11.664Z,0.34
2018-02-10T11:19:21.648Z,0.42
2018-02-10T11:20:31.098Z,0.44
2018-02-10T11:21:41.078Z,0.47
2018-02-10T11:22:50.797Z,0.3
2018-02-10T11:24:00.782Z,0.36
2018-02-10T11:25:10.513Z,0.19
2018-02-10T11:26:20.492Z,0.18
2018-02-10T11:27:30.469Z,0.31
2018-02-10T11:28:40.449Z,0.3
2018-02-10T11:29:50.180Z,0.24
2018-02-10T11:31:00.163Z,0.18
2018-02-10T11:32:09.881Z,0.02
2018-02-10T11:33:19.700Z,0.09
2018-02-10T11:34:29.674Z,0.09
2018-02-10T11:35:39.401Z,0.08
2018-02-10T11:36:48.851Z,-0.02
2018-02-10T11:37:58.831Z,-0.03
2018-02-10T11:39:08.548Z,0.05
2018-02-10T11:40:18.266Z,0.16
2018-02-10T11:41:27.983Z,0.16
2018-02-10T11:42:37.450Z,0.06
2018-02-10T11:43:47.431Z,0.09
2018-02-10T11:44:56.884Z,0.05
2018-02-10T11:46:06.341Z,0.09
2018-02-10T11:47:15.803Z,0.01
2018-02-10T11:48:25.785Z,-0.1
2018-02-10T11:49:35.505Z,0.05
2018-02-10T11:50:45.323Z,-0.17
2018-02-10T11:51:55.042Z,-0.13
2018-02-10T11:53:05.020Z,-0.1
2018-02-10T11:54:14.734Z,-0.12
2018-02-10T11:55:24.449Z,-0.07
2018-02-10T11:56:33.900Z,-0.2
2018-02-10T11:57:43.889Z,-0.21
2018-02-10T11:58:53.601Z,-0.2
2018-02-10T12:00:03.580Z,-0.17
2018-02-10T12:01:13.296Z,-0.13
2018-02-10T12:02:23.362Z,-0.03
2018-02-10T12:03:33.081Z,-0.1
2018-02-10T12:04:43.073Z,-0.05
2018-02-10T12:05:52.265Z,-0.03
2018-02-10T12:07:02.237Z,-0.07
2018-02-10T12:08:11.997Z,-0.09
2018-02-10T12:09:21.712Z,-0.03
2018-02-10T12:10:31.162Z,-0.06
2018-02-10T12:11:41.147Z,-0.03
2018-02-10T12:12:51.130Z,-0.03
2018-02-10T12:14:01.118Z,-0.05
2018-02-10T12:15:10.568Z,0.05
2018-02-10T12:16:20.556Z,0.12
2018-02-10T12:17:30.535Z,0.34
2018-02-10T12:18:40.515Z,0.61
2018-02-10T12:19:50.501Z,0.7
2018-02-10T12:21:00.220Z,0.74
2018-02-10T12:22:09.945Z,0.66
2018-02-10T12:23:19.664Z,0.63
2018-02-10T12:24:29.112Z,0.56
2018-02-10T12:25:38.618Z,0.66
2018-02-10T12:26:48.595Z,0.68
2018-02-10T12:27:58.576Z,0.74
2018-02-10T12:29:08.031Z,0.76
2018-02-10T12:30:18.016Z,0.68
2018-02-10T12:31:27.996Z,0.76
2018-02-10T12:32:37.715Z,0.78
2018-02-10T12:33:47.439Z,0.78
2018-02-10T12:34:57.418Z,0.91
2018-02-10T12:36:06.872Z,0.81
2018-02-10T12:37:16.585Z,0.82
2018-02-10T12:38:26.572Z,0.76
2018-02-10T12:39:36.030Z,0.67
2018-02-10T12:40:46.021Z,0.59
2018-02-10T12:41:55.741Z,0.55
2018-02-10T12:43:05.454Z,0.59
2018-02-10T12:44:15.172Z,0.45
2018-02-10T12:45:24.892Z,0.39
2018-02-10T12:46:34.347Z,0.29
2018-02-10T12:47:44.333Z,0.18
2018-02-10T12:48:54.055Z,0.13
2018-02-10T12:50:04.033Z,0.13
2018-02-10T12:51:14.027Z,0.12
2018-02-10T12:52:24.013Z,0.06
2018-02-10T12:53:33.736Z,0.01
2018-02-10T12:54:43.448Z,0
2018-02-10T12:55:53.167Z,0.02
2018-02-10T12:57:03.155Z,0.08
2018-02-10T12:58:12.880Z,0.06
2018-02-10T12:59:22.595Z,0.18
2018-02-10T13:00:32.588Z,0.13
2018-02-10T13:01:42.304Z,0.18
2018-02-10T13:02:52.022Z,0.2
2018-02-10T13:04:01.742Z,0.34
2018-02-10T13:05:11.726Z,0.34
2018-02-10T13:06:21.756Z,0.51
2018-02-10T13:07:31.203Z,0.59
2018-02-10T13:08:40.658Z,0.71
2018-02-10T13:09:49.882Z,0.63
2018-02-10T13:10:59.335Z,0.7
2018-02-10T13:12:09.315Z,0.68
2018-02-10T13:13:19.028Z,0.67
2018-02-10T13:14:28.745Z,0.49
2018-02-10T13:15:38.728Z,0.33
2018-02-10T13:16:48.182Z,0.34
2018-02-10T13:17:57.956Z,0.33
2018-02-10T13:19:07.670Z,0.26
2018-02-10T13:20:17.653Z,0.15
2018-02-10T13:21:27.379Z,0.19
2018-02-10T13:22:37.097Z,-0.05
2018-02-10T13:23:46.813Z,0.08
2018-02-10T13:24:56.805Z,-0.07
2018-02-10T13:26:06.257Z,-0.21
2018-02-10T13:27:16.242Z,-0.27
2018-02-10T13:28:26.294Z,-0.39
2018-02-10T13:29:36.123Z,-0.36
2018-02-10T13:30:46.120Z,-0.44
2018-02-10T13:31:55.836Z,-0.41
2018-02-10T13:33:05.819Z,-0.35
2018-02-10T13:34:15.275Z,-0.36
2018-02-10T13:35:25.268Z,-0.51
2018-02-10T13:36:35.306Z,-0.42
2018-02-10T13:37:45.294Z,-0.51
2018-02-10T13:38:55.048Z,-0.48
2018-02-10T13:40:04.769Z,-0.59
2018-02-10T13:41:14.758Z,-0.56
2018-02-10T13:42:24.470Z,-0.56
2018-02-10T13:43:33.926Z,-0.56
2018-02-10T13:44:43.113Z,-0.62
2018-02-10T13:45:53.143Z,-0.6
2018-02-10T13:47:03.203Z,-0.63
2018-02-10T13:48:12.947Z,-0.59
2018-02-10T13:49:22.927Z,-0.6
2018-02-10T13:50:32.904Z,-0.56
2018-02-10T13:51:42.630Z,-0.64
2018-02-10T13:52:52.402Z,-0.57
2018-02-10T13:54:02.117Z,-0.63
2018-02-10T13:55:12.140Z,-0.57
2018-02-10T13:56:21.594Z,-0.57
2018-02-10T13:57:31.313Z,-0.63
2018-02-10T13:58:41.393Z,-0.63
2018-02-10T13:59:51.108Z,-0.7
2018-02-10T14:01:00.557Z,-0.72
2018-02-10T14:02:10.547Z,-0.75
2018-02-10T14:03:20.326Z,-0.75
2018-02-10T14:04:29.823Z,-0.78
2018-02-10T14:05:39.544Z,-0.75
2018-02-10T14:06:48.996Z,-0.74
2018-02-10T14:07:58.980Z,-0.84
2018-02-10T14:09:08.697Z,-0.89
2018-02-10T14:10:18.470Z,-0.91
2018-02-10T14:11:28.185Z,-0.84
2018-02-10T14:12:37.366Z,-0.89
2018-02-10T14:13:47.403Z,-0.85
2018-02-10T14:14:57.172Z,-0.91
2018-02-10T14:16:07.088Z,-0.94
2018-02-10T14:17:16.809Z,-1.12
2018-02-10T14:18:26.590Z,-1.17
2018-02-10T14:19:36.581Z,-1.19
2018-02-10T14:20:46.575Z,-1.19
2018-02-10T14:21:56.289Z,-1.27
2018-02-10T14:23:06.265Z,-1.29
2018-02-10T14:24:15.985Z,-1.3
2018-02-10T14:25:25.434Z,-1.29
2018-02-10T14:26:34.893Z,-1.39
2018-02-10T14:27:44.875Z,-1.35
2018-02-10T14:28:54.870Z,-1.38
2018-02-10T14:30:04.860Z,-1.38
2018-02-10T14:31:14.570Z,-1.33
2018-02-10T14:32:24.558Z,-1.39
2018-02-10T14:33:34.281Z,-1.33
2018-02-10T14:34:44.263Z,-1.42
2018-02-10T14:35:54.242Z,-1.39
2018-02-10T14:37:03.957Z,-1.45
2018-02-10T14:38:13.408Z,-1.4
2018-02-10T14:39:23.172Z,-1.43
2018-02-10T14:40:32.620Z,-1.38
2018-02-10T14:41:42.115Z,-1.43
2018-02-10T14:42:52.098Z,-1.38
2018-02-10T14:44:01.545Z,-1.4
2018-02-10T14:45:11.361Z,-1.36
2018-02-10T14:46:21.076Z,-1.38
2018-02-10T14:47:30.840Z,-1.38
2018-02-10T14:48:40.819Z,-1.4
2018-02-10T14:49:50.822Z,-1.35
2018-02-10T14:51:00.797Z,-1.4
2018-02-10T14:52:10.511Z,-1.38
2018-02-10T14:53:20.489Z,-1.33
2018-02-10T14:54:29.697Z,-1.33
2018-02-10T14:55:39.458Z,-1.36
2018-02-10T14:56:49.451Z,-1.3
2018-02-10T14:57:59.437Z,-1.36
2018-02-10T14:59:09.421Z,-1.38
2018-02-10T15:00:19.138Z,-1.32
2018-02-10T15:01:28.853Z,-1.3
2018-02-10T15:02:38.091Z,-1.3
2018-02-10T15:03:47.009Z,-1.29
2018-02-10T15:04:56.991Z,-1.3
2018-02-10T15:06:06.444Z,-1.29
2018-02-10T15:07:16.156Z,-1.25
2018-02-10T15:08:25.866Z,-1.33
2018-02-10T15:09:35.846Z,-1.29